Latest Weather Observations for Penrith

IDN60901

Issued at 7:45 pm EST Wednesday 23 April 2014 (issued every 10 minutes, with the page automatically refreshed every 10 minutes)

About weather observations | Map of Sydney area stations | Latest observations for Sydney area | Other Formats
Station Details ID: 067113 Name: PENRITH LAKES AWS Lat: -33.72 Lon: 150.68 Height: 24.7 m
Data from the previous 72 hours. | See also: Recent months at Penrith
Date/Time
EST
Tmp

°C
App
Tmp
°C
Dew
Point
°C
Rel
Hum
%
Delta-T

°C
Wind Press
QNH
hPa
Press
MSL
hPa
Rain
since
9 am
mm
Dir
 
Spd
km/h
Gust
km/h
Spd
kts
Gust
kts
23/07:30pm 16.1 17.6 14.6 91 0.9 SSW 0 0 0 0 - - 0.0
23/07:00pm 17.0 18.1 13.5 80 2.0 CALM 0 2 0 1 - - 0.0
23/06:30pm 18.4 18.0 11.0 62 4.0 WNW 4 6 2 3 - - 0.0
23/06:00pm 18.5 19.0 11.6 64 3.8 CALM 0 0 0 0 - - 0.0
23/05:30pm 20.0 19.7 11.5 58 4.7 NW 4 6 2 3 - - 0.0
23/05:00pm 22.7 21.9 11.1 48 6.4 NNW 6 7 3 4 - - 0.0
23/04:30pm 23.8 22.6 9.4 40 7.8 N 6 7 3 4 - - 0.0
23/04:00pm 24.5 23.2 10.0 40 8.0 N 7 11 4 6 - - 0.0
23/03:30pm 24.8 23.4 9.5 38 8.4 N 7 11 4 6 - - 0.0
23/03:00pm 24.7 23.5 9.4 38 8.3 N 6 11 3 6 - - 0.0
23/02:30pm 24.4 23.2 10.3 41 7.8 N 7 13 4 7 - - 0.0
23/02:00pm 23.9 23.2 11.3 45 7.1 N 6 7 3 4 - - 0.0
23/01:30pm 23.5 22.6 11.2 46 6.9 NNW 7 9 4 5 - - 0.0
23/01:00pm 23.1 22.9 11.8 49 6.4 NE 4 7 2 4 - - 0.0
23/12:30pm 21.9 21.8 12.2 54 5.5 N 4 9 2 5 - - 0.0
23/12:00pm 21.4 21.0 12.5 57 5.0 N 6 7 3 4 - - 0.0
23/11:30am 20.1 19.9 11.8 59 4.6 NW 4 6 2 3 - - 0.0
23/11:00am 19.4 19.2 11.7 61 4.3 NNW 4 7 2 4 - - 0.0
23/10:30am 18.3 17.5 10.9 62 4.0 NNW 6 7 3 4 - - 0.0
23/10:00am 17.2 16.5 11.5 69 3.1 N 6 7 3 4 - - 0.0
23/09:30am 15.8 15.5 11.4 75 2.4 NNW 4 6 2 3 - - 0.0
23/09:00am 15.1 15.0 10.7 75 2.3 N 2 4 1 2 - - 0.0
23/08:30am 13.1 13.4 11.0 87 1.1 CALM 0 0 0 0 - - 0.0
23/08:00am 12.3 12.0 11.5 95 0.4 S 4 4 2 2 - - 0.0
23/07:30am 11.3 11.6 11.0 98 0.2 SSE 0 4 0 2 - - 0.0
23/07:00am 10.0 9.6 9.7 98 0.2 ENE 2 2 1 1 - - 0.0
23/06:30am 8.9 8.6 8.6 98 0.1 CALM 0 2 0 1 - - 0.0
23/06:00am 8.9 8.2 8.6 98 0.1 S 2 4 1 2 - - 0.0
23/05:30am 9.3 9.1 9.0 98 0.1 CALM 0 0 0 0 - - 0.0
23/05:00am 9.5 9.3 9.2 98 0.1 CALM 0 0 0 0 - - 0.0
23/04:30am 9.9 9.8 9.6 98 0.1 CALM 0 0 0 0 - - 0.0
23/04:00am 9.6 9.1 9.3 98 0.1 SSE 2 7 1 4 - - 0.0
23/03:30am 9.9 9.8 9.6 98 0.1 CALM 0 0 0 0 - - 0.0
23/03:00am 10.3 10.4 10.0 98 0.2 CALM 0 4 0 2 - - 0.0
23/02:30am 10.1 9.3 9.8 98 0.2 SSW 4 6 2 3 - - 0.0
23/02:00am 10.4 9.7 10.1 98 0.2 SSW 4 6 2 3 - - 0.0
23/01:30am 11.5 11.4 10.7 95 0.4 WNW 2 4 1 2 - - 0.0
23/01:00am 11.7 12.1 11.4 98 0.2 CALM 0 0 0 0 - - 0.0
23/12:30am 12.0 12.5 11.7 98 0.2 CALM 0 0 0 0 - - 0.0
23/12:00am 12.3 11.8 12.0 98 0.2 S 6 7 3 4 - - 0.0
 
Date/Time
EST
Tmp

°C
App
Tmp
°C
Dew
Point
°C
Rel
Hum
%
Delta-T

°C
Wind Press
QNH
hPa
Press
MSL
hPa
Rain
since
9 am
mm
Dir
 
Spd
km/h
Gust
km/h
Spd
kts
Gust
kts
22/11:30pm 12.6 12.5 12.1 97 0.3 S 4 6 2 3 - - 0.0
22/11:00pm 13.3 13.4 12.8 97 0.3 S 4 6 2 3 - - 0.0
22/10:30pm 14.0 14.2 13.1 94 0.5 SSE 4 6 2 3 - - 0.0
22/10:00pm 14.6 14.2 12.5 87 1.1 SW 6 7 3 4 - - 0.0
22/09:30pm 15.4 15.1 11.4 77 2.1 WSW 4 7 2 4 - - 0.0
22/09:00pm 17.6 16.8 10.9 65 3.6 SSE 6 7 3 4 - - 0.0
22/08:30pm 18.5 18.4 10.8 61 4.2 SW 2 6 1 3 - - 0.0
22/08:00pm 20.1 19.6 9.4 50 5.7 N 2 7 1 4 - - 0.0
22/07:30pm 18.9 18.9 9.7 55 4.9 CALM 0 0 0 0 - - 0.0
22/07:00pm 20.5 20.0 9.4 49 5.9 N 2 9 1 5 - - 0.0
22/06:30pm 20.2 19.8 9.7 51 5.6 NNE 2 6 1 3 - - 0.0
22/06:00pm 19.6 19.6 11.1 58 4.6 N 2 6 1 3 - - 0.0
22/05:30pm 20.2 19.6 12.2 60 4.5 NNE 7 7 4 4 - - 0.0
22/05:00pm 21.5 21.9 13.7 61 4.5 NW 4 6 2 3 - - 0.0
22/04:30pm 22.5 22.5 13.6 57 5.2 N 6 9 3 5 - - 0.0
22/04:00pm 23.3 22.8 12.0 49 6.4 NNE 6 6 3 3 - - 0.0
22/03:30pm 23.6 22.8 11.0 45 7.0 N 6 9 3 5 - - 0.0
22/03:00pm 23.8 23.3 10.8 44 7.2 NW 4 9 2 5 - - 0.0
22/02:30pm 23.8 24.1 12.1 48 6.7 W 2 6 1 3 - - 0.0
22/02:00pm 23.5 23.2 11.5 47 6.7 SW 4 7 2 4 - - 0.0
22/01:30pm 22.5 22.4 12.2 52 5.8 SW 4 7 2 4 - - 0.0
22/01:00pm 21.6 21.8 11.9 54 5.4 W 2 6 1 3 - - 0.0
22/12:30pm 20.4 20.3 12.1 59 4.6 SSW 4 6 2 3 - - 0.0
22/12:00pm 19.7 19.9 12.0 61 4.3 WNW 2 6 1 3 - - 0.0
22/11:30am 18.8 18.6 11.9 64 3.8 NW 4 11 2 6 - - 0.0
22/11:00am 17.5 16.4 10.6 64 3.7 N 7 9 4 5 - - 0.0
22/10:30am 16.7 15.8 10.5 67 3.3 N 6 9 3 5 - - 0.0
22/10:00am 15.4 15.7 12.3 82 1.7 ESE 2 4 1 2 - - 0.0
22/09:30am 13.8 14.3 11.7 87 1.1 CALM 0 0 0 0 - - 0.0
22/09:00am 13.1 13.5 12.5 96 0.3 N 2 4 1 2 - - 0.0
22/08:30am 12.5 13.2 12.2 98 0.2 CALM 0 4 0 2 - - 0.0
22/08:00am 11.4 11.8 11.1 98 0.2 CALM 0 0 0 0 - - 0.0
22/07:30am 10.5 10.6 10.2 98 0.2 CALM 0 2 0 1 - - 0.0
22/07:00am 9.6 9.5 9.3 98 0.1 CALM 0 0 0 0 - - 0.0
22/06:30am 9.0 8.7 8.7 98 0.1 CALM 0 0 0 0 - - 0.0
22/06:00am 9.1 8.8 8.8 98 0.1 CALM 0 0 0 0 - - 0.0
22/05:30am 8.7 8.3 8.4 98 0.1 CALM 0 0 0 0 - - 0.0
22/05:00am 9.0 8.0 8.7 98 0.1 SSE 4 6 2 3 - - 0.0
22/04:30am 9.3 7.9 9.0 98 0.1 SSW 6 7 3 4 - - 0.0
22/04:00am 9.3 8.3 9.0 98 0.1 S 4 6 2 3 - - 0.0
22/03:30am 9.6 8.7 9.3 98 0.1 NE 4 6 2 3 - - 0.0
22/03:00am 9.8 9.0 9.5 98 0.1 S 4 6 2 3 - - 0.0
22/02:30am 10.2 9.5 9.9 98 0.2 SSW 4 6 2 3 - - 0.0
22/02:00am 10.4 10.5 10.1 98 0.2 CALM 0 0 0 0 - - 0.0
22/01:30am 10.5 9.8 10.2 98 0.2 N 4 6 2 3 - - 0.0
22/01:00am 11.0 10.9 10.7 98 0.2 S 2 6 1 3 - - 0.0
22/12:30am 11.3 11.6 11.0 98 0.2 CALM 0 0 0 0 - - 0.0
22/12:00am 11.8 11.8 11.3 97 0.3 WNW 2 4 1 2 - - 0.0
 
Date/Time
EST
Tmp

°C
App
Tmp
°C
Dew
Point
°C
Rel
Hum
%
Delta-T

°C
Wind Press
QNH
hPa
Press
MSL
hPa
Rain
since
9 am
mm
Dir
 
Spd
km/h
Gust
km/h
Spd
kts
Gust
kts
21/11:30pm 12.1 12.2 11.6 97 0.3 WNW 2 6 1 3 - - 0.0
21/11:00pm 12.2 12.8 11.9 98 0.2 CALM 0 0 0 0 - - 0.0
21/10:30pm 12.2 12.7 11.7 97 0.3 CALM 0 2 0 1 - - 0.0
21/10:00pm 12.4 12.2 11.9 97 0.3 S 4 4 2 2 - - 0.0
21/09:30pm 12.9 12.6 11.5 91 0.7 SSE 4 6 2 3 - - 0.0
21/09:00pm 13.5 13.2 11.6 88 1.0 SSW 4 4 2 2 - - 0.0
21/08:30pm 13.9 13.6 11.4 85 1.3 SSE 4 6 2 3 - - 0.0
21/08:00pm 14.8 13.7 9.8 72 2.6 SSW 6 7 3 4 - - 0.0
21/07:30pm 15.8 15.0 9.5 66 3.3 W 4 6 2 3 - - 0.0
21/07:00pm 16.3 15.5 9.5 64 3.5 WNW 4 6 2 3 - - 0.0
21/06:30pm 16.6 16.1 9.5 63 3.7 NW 2 4 1 2 - - 0.0
21/06:00pm 17.4 16.6 9.6 60 4.1 NW 4 4 2 2 - - 0.0
21/05:30pm 18.8 18.0 9.6 55 4.9 NNW 4 4 2 2 - - 0.0
21/05:00pm 20.5 19.0 8.5 46 6.3 NNE 6 6 3 3 - - 0.0
21/04:30pm 21.7 20.6 6.8 38 7.6 NE 2 4 1 2 - - 0.0
21/04:00pm 22.7 22.2 7.7 38 7.8 CALM 0 0 0 0 - - 0.0
21/03:30pm 22.1 21.3 8.2 41 7.3 S 2 7 1 4 - - 0.0
21/03:00pm 22.0 20.3 5.8 35 8.1 SE 4 7 2 4 - - 0.0
21/02:30pm 22.3 20.6 6.1 35 8.2 N 4 7 2 4 - - 0.0
21/02:00pm 22.4 21.1 6.2 35 8.2 WNW 2 6 1 3 - - 0.0
21/01:30pm 21.9 20.0 6.6 37 7.8 N 6 9 3 5 - - 0.0
21/01:00pm 21.6 20.4 8.1 42 7.1 SE 4 6 2 3 - - 0.0
21/12:30pm 21.2 19.9 7.8 42 7.0 E 4 6 2 3 - - 0.0
21/12:00pm 20.8 20.1 7.1 41 7.0 CALM 0 4 0 2 - - 0.0
21/11:30am 20.2 19.0 6.5 41 6.9 ESE 2 6 1 3 - - 0.0
21/11:00am 19.2 17.8 7.3 46 6.0 SW 4 7 2 4 - - 0.0
21/10:30am 18.6 17.5 8.3 51 5.3 SSE 4 6 2 3 - - 0.0
21/10:00am 17.6 17.2 8.2 54 4.8 CALM 0 0 0 0 - - 0.0
21/09:30am 16.7 15.3 8.7 59 4.1 N 6 7 3 4 - - 0.0
21/09:00am 15.6 14.7 9.3 66 3.3 NNE 4 6 2 3 - - 0.0
21/08:30am 14.0 13.6 9.8 76 2.2 N 2 4 1 2 - - 0.0
21/08:00am 12.3 12.6 10.9 91 0.7 CALM 0 0 0 0 - - 0.0
21/07:30am 11.7 11.5 10.4 92 0.7 NW 2 4 1 2 - - 0.0
21/07:00am 10.0 9.2 9.5 97 0.2 WSW 4 4 2 2 - - 0.0
21/06:30am 9.7 9.6 9.4 98 0.1 CALM 0 0 0 0 - - 0.0
21/06:00am 9.6 9.5 9.3 98 0.1 CALM 0 0 0 0 - - 0.0
21/05:30am 9.8 9.7 9.5 98 0.1 CALM 0 0 0 0 - - 0.0
21/05:00am 10.0 9.2 9.5 97 0.2 WSW 4 6 2 3 - - 0.0
21/04:30am 10.6 10.7 10.1 97 0.3 CALM 0 0 0 0 - - 0.0
21/04:00am 10.9 11.1 10.4 97 0.3 CALM 0 4 0 2 - - 0.0
21/03:30am 10.7 10.9 10.4 98 0.2 CALM 0 0 0 0 - - 0.0
21/03:00am 11.0 11.2 10.4 96 0.3 CALM 0 0 0 0 - - 0.0
21/02:30am 11.8 12.0 10.7 93 0.6 CALM 0 0 0 0 - - 0.0
21/02:00am 12.5 12.1 9.9 84 1.3 NW 2 4 1 2 - - 0.0
21/01:30am 12.4 11.5 9.4 82 1.5 SE 4 7 2 4 - - 0.0
21/01:00am 13.1 11.8 9.2 77 2.0 SE 6 6 3 3 - - 0.0
21/12:30am 14.5 12.9 8.9 69 2.8 S 7 11 4 6 - - 0.0
21/12:00am 14.1 12.5 10.3 78 2.0 SE 9 11 5 6 - - 0.0
 
Date/Time
EST
Tmp

°C
App
Tmp
°C
Dew
Point
°C
Rel
Hum
%
Delta-T

°C
Wind Press
QNH
hPa
Press
MSL
hPa
Rain
since
9 am
mm
Dir
 
Spd
km/h
Gust
km/h
Spd
kts
Gust
kts
20/11:30pm 14.4 13.5 11.2 81 1.7 S 7 11 4 6 - - 0.0
20/11:00pm 14.9 13.7 11.7 81 1.7 SSE 9 13 5 7 - - 0.0
20/10:30pm 14.7 14.1 12.2 85 1.4 S 7 9 4 5 - - 0.0
20/10:00pm 14.7 14.3 13.1 90 0.9 SSE 7 9 4 5 - - 0.0
20/09:30pm 15.3 14.8 13.8 91 0.8 S 9 11 5 6 - - 0.0
20/09:00pm 14.9 15.2 14.6 98 0.2 SSW 6 7 3 4 - - 0.0
20/08:30pm 15.3 16.1 14.8 97 0.3 S 4 6 2 3 - - 0.0
20/08:00pm 16.3 17.6 15.2 93 0.6 SSW 2 4 1 2 - - 0.0

Latest Capital City Observations: Canberra | Sydney | Melbourne | Brisbane | Adelaide | Perth | Hobart | Darwin

Other Formats:

Comma delimited format used in spreadsheet applications
http://www.bom.gov.au/fwo/IDN60901/IDN60901.94763.axf

JavaScript Object Notation format (JSON) in row-major order
http://www.bom.gov.au/fwo/IDN60901/IDN60901.94763.json